Nullarbor, Australia
Current Conditions -  °F | °C
As of 8:00 PM on Thursday 18 Dec 2014 (Local Time) from YCDU Reporting Station
Scattered Clouds Scattered Clouds  
Wind Chill: 66°   Ceiling: Unl
Heat Index: 66°   Visibility: 6mi
Dew Point: 54°   Wind: 12mph
Humidity: 64%   Direction: 170°S
Pressure: 30.06"   Gusts: NA
Location:  31.45°S, 130.89°E
Report Text: YCDU 181000Z AUTO 17010KT 9999 // SCT026 19/12 Q1018
Loading
Personal Weather Stations






























Interactive Weather Map New forecast layout! Learn more

10-Day Weather Forecast

Advertisements
Track Severe Weather on mobile